TLSO2: Arkansas River, Tulsa, OK

                                SHEF ID:       TLSO2     Arkansas River at Tulsa, OK
STATION TYPE: Stream Gauge
Regulating: Stage = 15.00, Flow = 96489

PRECIP STAGE STAGE(2) RIV-FLOW WTR-TEMP DIS-OXY BAT-LOAD
in ft ft cfs F mg/l volt
Ccp-Rev Ccp-Rev Ccp-Rev Ccp-Rev Ccp-Rev Ccp-Rev Ccp-Rev
(America/Chicago)
03/28 00:00 0.00 4.42 ---- 4306 56.73 11.17 ----
03/28 01:00 0.00 4.58 ---- 5068 56.71 9.87 ----
03/28 02:00 0.00 4.53 ---- 4822 55.04 10.10 ----
03/28 03:00 0.00 4.54 ---- 4871 54.70 10.01 ----
03/28 04:00 0.00 4.53 ---- 4822 54.18 9.90 ----
03/28 05:00 0.00 4.54 ---- 4871 53.69 9.68 ----
03/28 06:00 0.00 4.53 ---- 4822 53.19 9.78 ----
03/28 07:00 0.00 4.49 ---- 4631 52.77 9.62 ----
03/28 08:00 0.00 4.48 ---- 4583 52.47 9.29 ----
03/28 09:00 0.00 4.45 ---- 4443 52.57 9.24 ----
03/28 10:00 0.00 4.41 ---- 4260 52.54 9.61 ----
03/28 11:00 0.00 4.44 ---- 4397 52.83 10.09 ----
03/28 12:00 0.00 4.44 ---- 4397 53.42 10.63 ----
03/28 13:00 0.00 4.49 ---- 4631 54.30 11.48 ----
03/28 14:00 0.00 4.55 ---- 4920 55.71 12.73 ----
03/28 15:00 0.00 4.61 ---- 5219 56.25 12.45 ----
03/28 16:00 0.00 4.57 ---- 5019 56.97 13.16 ----
03/28 17:00 0.00 4.57 ---- 5019 57.74 13.51 ----
03/28 18:00 0.00 4.54 ---- 4871 58.32 13.16 ----
03/28 19:00 0.00 4.49 ---- 4631 58.78 12.82 ----
03/28 20:00 0.00 4.49 ---- 4631 58.71 12.00 ----
03/28 21:00 0.00 4.50 ---- 4678 58.86 12.05 ----
03/28 22:00 0.00 4.47 ---- 4536 58.59 11.29 ----
03/28 23:00 0.00 4.51 ---- 4726 58.46 10.92 ----
Data processed at Sun 29Mar2026 04:48 GMT

NOTICE: If you are parsing this page

Please convert to using our Data API. Starting early 2026 we will be migrating to: https://water.usace.army.mil with modern pages rendered in JavaScript. When this migration completes you will no longer be able to scrape this page! CWMSDataAPI (CDA)

Timeseries IDs (TSIDs)

TSIDs used from left to right in the data table
TULA.Precip-Inc.Total.1Hour.1Hour.Ccp-Rev
TULA.Stage.Inst.1Hour.0.Ccp-Rev
TULA.Stage-Alt.Inst.1Hour.0.Ccp-Rev
TULA.Flow.Inst.1Hour.0.Ccp-Rev
TULA.Temp-Water.Inst.1Hour.0.Ccp-Rev
TULA.Conc-DO.Inst.1Hour.0.Ccp-Rev
TULA.Volt-Battery Load.Inst.1Hour.0.Ccp-Rev

                            

All information presented herein is the property of the government of the United States of America and may be revised or deleted at any time without prior notice. Dissemination of this information without the expressed written consent of the Public Affairs Office, Tulsa District U.S. Army Corps of Engineers is strictly prohibited. These data are gathered electronically and, as presented, have NOT undergone any form of quality control. These data are NOT guaranteed to be valid or correct.